Powell, Nebraska
Current Conditions -  °F | °C
As of 11:15 AM on Saturday 20 Dec 2014 (Local Time) from KHJH Reporting Station
Moderate Fog Moderate Fog  
Wind Chill: 28°   Ceiling: 100
Heat Index: 28°   Visibility: 0.25mi
Dew Point: 27°   Wind: 0mph
Humidity: 95%   Direction: NA
Pressure: 30.1"   Gusts: NA
Location:  40.1696°N, 97.2152°W
Report Text: KHJH 201715Z AUTO 00000KT 1/4SM FZFG OVC001 M02/M03 A3010 RMK AO2 T10201027
Loading
Personal Weather Stations






























Interactive Weather Map New forecast layout! Learn more

10-Day Weather Forecast

Advertisements
Track Severe Weather on mobile